Time;durP1;ratioP1;P1;durP2;ratioP2;P2;SDS_P1;SDS_P2;PMS_P1;PMS_P2;Temp;Humidity;BMP_temperature;BMP_pressure;BME280_temperature;BME280_humidity;BME280_pressure;Samples;Min_cycle;Max_cycle;Signal;HPM_P1;HPM_P2
2023/06/28 00:01:00;;;;;;;;;;;20.30;65.30;;;;;;5132448;27;19922;-69
2023/06/28 00:03:26;;;;;;;;;;;20.30;65.30;;;;;;5106939;27;19981;-69
2023/06/28 00:05:51;;;;;;;;;;;20.20;65.30;;;;;;5103400;28;20412;-70
2023/06/28 00:08:17;;;;;;;;;;;20.20;65.40;;;;;;5111651;28;19912;-70
2023/06/28 00:10:42;;;;;;;;;;;20.20;65.60;;;;;;5111705;28;20623;-70
2023/06/28 00:13:08;;;;;;;;;;;20.20;65.50;;;;;;5104688;28;19916;-70
2023/06/28 00:15:33;;;;;;;;;;;20.10;65.60;;;;;;5111174;28;20416;-70
2023/06/28 00:18:02;;;;;;;;;;;20.10;65.60;;;;;;5111810;28;20592;-69
2023/06/28 00:20:28;;;;;;;;;;;20.10;65.60;;;;;;5110952;28;19912;-69
2023/06/28 00:22:54;;;;;;;;;;;20.10;65.70;;;;;;5111575;28;19968;-70
2023/06/28 00:25:20;;;;;;;;;;;20.00;65.80;;;;;;5109858;28;19971;-69
2023/06/28 00:27:45;;;;;;;;;;;20.10;65.80;;;;;;5111413;28;20404;-70
2023/06/28 00:30:11;;;;;;;;;;;20.00;66.50;;;;;;5111118;28;19916;-70
2023/06/28 00:32:37;;;;;;;;;;;20.00;66.10;;;;;;5109762;28;19951;-69
2023/06/28 00:35:03;;;;;;;;;;;20.00;66.20;;;;;;5111284;28;19918;-69
2023/06/28 00:37:28;;;;;;;;;;;20.00;66.40;;;;;;5110879;28;19912;-69
2023/06/28 00:39:54;;;;;;;;;;;19.90;66.30;;;;;;5109555;28;19930;-70
2023/06/28 00:42:20;;;;;;;;;;;19.90;66.10;;;;;;5110986;28;19923;-70
2023/06/28 00:44:45;;;;;;;;;;;19.90;66.20;;;;;;5111190;28;19908;-70
2023/06/28 00:47:11;;;;;;;;;;;19.90;66.30;;;;;;5110549;28;20234;-69
2023/06/28 00:49:37;;;;;;;;;;;19.90;66.30;;;;;;5111118;28;20424;-69
2023/06/28 00:52:04;;;;;;;;;;;19.90;66.40;;;;;;5110880;28;19916;-70
2023/06/28 00:54:29;;;;;;;;;;;19.80;66.40;;;;;;5111010;28;20454;-70
2023/06/28 00:56:55;;;;;;;;;;;19.80;66.60;;;;;;5109042;28;19912;-70
2023/06/28 00:59:21;;;;;;;;;;;19.80;66.60;;;;;;5109714;28;19911;-70
2023/06/28 01:01:49;;;;;;;;;;;19.80;66.60;;;;;;5110675;28;19908;-69
2023/06/28 01:04:15;;;;;;;;;;;19.80;66.60;;;;;;5110809;28;19929;-70
2023/06/28 01:06:41;;;;;;;;;;;19.70;66.70;;;;;;5109121;28;19912;-69
2023/06/28 01:09:08;;;;;;;;;;;19.70;66.90;;;;;;5110362;28;19965;-69
2023/06/28 01:11:36;;;;;;;;;;;19.70;66.70;;;;;;5110454;27;19947;-69
2023/06/28 01:14:03;;;;;;;;;;;19.70;67.00;;;;;;5110020;28;19907;-69
2023/06/28 01:16:29;;;;;;;;;;;19.70;67.00;;;;;;5110252;28;19918;-69
2023/06/28 01:18:54;;;;;;;;;;;19.70;67.00;;;;;;5108849;28;19911;-70
2023/06/28 01:21:22;;;;;;;;;;;19.60;67.00;;;;;;5110477;28;19964;-70
2023/06/28 01:23:48;;;;;;;;;;;19.60;67.10;;;;;;5108648;28;20364;-69
2023/06/28 01:26:15;;;;;;;;;;;19.60;67.10;;;;;;5108549;28;19912;-69
2023/06/28 01:28:42;;;;;;;;;;;19.60;67.20;;;;;;5110170;28;19935;-70
2023/06/28 01:31:07;;;;;;;;;;;19.60;67.40;;;;;;5108485;28;19920;-69
2023/06/28 01:33:33;;;;;;;;;;;19.60;67.40;;;;;;5107790;28;19964;-69
2023/06/28 01:35:58;;;;;;;;;;;19.50;67.30;;;;;;5109924;28;20121;-69
2023/06/28 01:38:25;;;;;;;;;;;19.50;67.50;;;;;;5110098;28;20611;-69
2023/06/28 01:40:51;;;;;;;;;;;19.50;67.50;;;;;;5110032;28;20435;-70
2023/06/28 01:43:17;;;;;;;;;;;19.50;67.50;;;;;;5109852;28;19965;-69
2023/06/28 01:45:42;;;;;;;;;;;19.40;67.50;;;;;;5109958;28;19912;-69
2023/06/28 01:48:08;;;;;;;;;;;19.50;67.70;;;;;;5109892;28;19975;-69
2023/06/28 01:50:33;;;;;;;;;;;19.40;67.60;;;;;;5109952;28;19915;-69
2023/06/28 01:53:01;;;;;;;;;;;19.40;67.60;;;;;;5110250;28;20637;-69
2023/06/28 01:55:27;;;;;;;;;;;19.40;67.70;;;;;;5108249;28;19957;-69
2023/06/28 01:57:52;;;;;;;;;;;19.40;67.80;;;;;;5109608;28;19911;-69
2023/06/28 02:00:18;;;;;;;;;;;19.40;67.90;;;;;;5109610;28;19999;-70
2023/06/28 02:02:44;;;;;;;;;;;19.30;67.90;;;;;;5110840;27;19914;-69
2023/06/28 02:05:09;;;;;;;;;;;19.30;67.90;;;;;;5123562;27;19915;-69
2023/06/28 02:07:35;;;;;;;;;;;19.30;68.00;;;;;;5108954;28;19918;-69
2023/06/28 02:10:00;;;;;;;;;;;19.30;68.10;;;;;;5109468;28;19969;-70
2023/06/28 02:12:26;;;;;;;;;;;19.30;68.00;;;;;;5102576;28;19964;-70
2023/06/28 02:14:52;;;;;;;;;;;19.30;68.10;;;;;;5109217;28;19912;-69
2023/06/28 02:17:20;;;;;;;;;;;19.20;68.10;;;;;;5109030;28;19919;-69
2023/06/28 02:19:46;;;;;;;;;;;19.20;68.20;;;;;;5109507;28;19915;-69
2023/06/28 02:22:12;;;;;;;;;;;19.20;68.20;;;;;;5109117;28;20029;-69
2023/06/28 02:24:37;;;;;;;;;;;19.20;68.20;;;;;;5109560;28;20375;-70
2023/06/28 02:27:03;;;;;;;;;;;19.20;68.30;;;;;;5108809;28;20325;-69
2023/06/28 02:29:29;;;;;;;;;;;19.10;68.40;;;;;;5109191;28;19915;-69
2023/06/28 02:31:55;;;;;;;;;;;19.10;68.30;;;;;;5109093;28;20384;-69
2023/06/28 02:34:20;;;;;;;;;;;19.20;68.40;;;;;;5109079;28;19994;-69
2023/06/28 02:36:46;;;;;;;;;;;19.10;68.50;;;;;;5107558;28;20047;-69
2023/06/28 02:39:11;;;;;;;;;;;19.10;68.60;;;;;;5107850;28;19907;-69
2023/06/28 02:41:36;;;;;;;;;;;19.10;68.30;;;;;;5107904;28;19912;-69
2023/06/28 02:44:02;;;;;;;;;;;19.00;68.50;;;;;;5108739;28;19912;-69
2023/06/28 02:46:27;;;;;;;;;;;19.10;68.70;;;;;;5108842;28;20543;-69
2023/06/28 02:48:53;;;;;;;;;;;19.00;68.80;;;;;;5108879;28;19993;-69
2023/06/28 02:51:18;;;;;;;;;;;19.00;68.90;;;;;;5109225;28;19962;-69
2023/06/28 02:53:44;;;;;;;;;;;19.00;68.80;;;;;;5109084;28;19920;-69
2023/06/28 02:56:13;;;;;;;;;;;19.00;68.70;;;;;;5108822;28;19915;-69
2023/06/28 02:58:38;;;;;;;;;;;19.00;68.80;;;;;;5109038;28;19911;-69
2023/06/28 03:01:04;;;;;;;;;;;19.00;68.90;;;;;;5108961;28;19908;-69
2023/06/28 03:03:33;;;;;;;;;;;18.90;68.90;;;;;;5108648;28;19985;-69
2023/06/28 03:05:59;;;;;;;;;;;18.90;69.00;;;;;;5108477;28;19919;-69
2023/06/28 03:08:24;;;;;;;;;;;18.90;68.90;;;;;;5108913;28;19911;-69
2023/06/28 03:10:50;;;;;;;;;;;18.90;69.10;;;;;;5108884;28;19960;-70
2023/06/28 03:13:15;;;;;;;;;;;18.90;69.10;;;;;;5108079;28;19911;-69
2023/06/28 03:15:41;;;;;;;;;;;18.90;69.10;;;;;;5108291;28;19994;-69
2023/06/28 03:18:06;;;;;;;;;;;18.90;69.00;;;;;;5108250;28;19964;-69
2023/06/28 03:20:32;;;;;;;;;;;18.90;69.10;;;;;;5108751;28;20564;-69
2023/06/28 03:22:57;;;;;;;;;;;18.90;69.20;;;;;;5108918;28;20421;-69
2023/06/28 03:25:23;;;;;;;;;;;18.80;69.20;;;;;;5108513;28;20325;-69
2023/06/28 03:27:49;;;;;;;;;;;18.80;69.20;;;;;;5108745;28;19908;-69
2023/06/28 03:30:15;;;;;;;;;;;18.80;69.30;;;;;;5108665;28;19943;-70
2023/06/28 03:32:40;;;;;;;;;;;18.80;69.30;;;;;;5108543;28;20391;-69
2023/06/28 03:35:06;;;;;;;;;;;18.80;69.40;;;;;;5108555;28;19919;-69
2023/06/28 03:37:32;;;;;;;;;;;18.80;69.40;;;;;;5108399;28;19908;-69
2023/06/28 03:39:57;;;;;;;;;;;18.80;69.40;;;;;;5107216;28;20394;-69
2023/06/28 03:42:23;;;;;;;;;;;18.80;69.40;;;;;;5108277;28;19922;-69
2023/06/28 03:44:48;;;;;;;;;;;18.80;69.60;;;;;;5108686;28;19935;-69
2023/06/28 03:47:14;;;;;;;;;;;18.80;69.50;;;;;;5108088;28;19914;-69
2023/06/28 03:49:40;;;;;;;;;;;18.80;69.60;;;;;;5108522;28;19912;-69
2023/06/28 03:52:06;;;;;;;;;;;18.80;69.70;;;;;;5108417;28;20341;-69
2023/06/28 03:54:32;;;;;;;;;;;18.80;69.60;;;;;;5108618;28;19946;-69
2023/06/28 03:56:58;;;;;;;;;;;18.70;69.60;;;;;;5111334;28;19918;-69
2023/06/28 03:59:23;;;;;;;;;;;18.80;69.60;;;;;;5112052;28;19912;-69
2023/06/28 04:01:49;;;;;;;;;;;18.70;69.60;;;;;;5110316;28;19941;-69
2023/06/28 04:04:15;;;;;;;;;;;18.70;69.60;;;;;;5123845;27;19911;-69
2023/06/28 04:06:41;;;;;;;;;;;18.70;69.60;;;;;;5111420;27;19912;-69
2023/06/28 04:09:08;;;;;;;;;;;18.70;69.70;;;;;;5112009;28;19908;-69
2023/06/28 04:11:33;;;;;;;;;;;18.70;69.80;;;;;;5107612;28;19920;-69
2023/06/28 04:13:59;;;;;;;;;;;18.70;69.70;;;;;;5108752;28;20044;-69
2023/06/28 04:16:24;;;;;;;;;;;18.70;69.70;;;;;;5111669;28;19907;-69
2023/06/28 04:18:52;;;;;;;;;;;18.70;69.80;;;;;;5111797;28;20326;-69
2023/06/28 04:21:18;;;;;;;;;;;18.70;69.80;;;;;;5111825;28;19908;-69
2023/06/28 04:23:43;;;;;;;;;;;18.70;69.90;;;;;;5111522;28;19989;-69
2023/06/28 04:26:09;;;;;;;;;;;18.70;69.90;;;;;;5111384;28;19997;-69
2023/06/28 04:28:34;;;;;;;;;;;18.70;69.90;;;;;;5111362;28;19999;-69
2023/06/28 04:31:00;;;;;;;;;;;18.70;69.90;;;;;;5111399;28;20285;-69
2023/06/28 04:33:29;;;;;;;;;;;18.70;69.90;;;;;;5111159;27;19911;-69
2023/06/28 04:35:56;;;;;;;;;;;18.70;70.00;;;;;;5109655;28;19934;-69
2023/06/28 04:38:22;;;;;;;;;;;18.70;69.90;;;;;;5111306;28;19915;-69
2023/06/28 04:40:48;;;;;;;;;;;18.70;70.00;;;;;;5111252;28;19947;-69
2023/06/28 04:43:14;;;;;;;;;;;18.70;69.90;;;;;;5111205;28;19963;-69
2023/06/28 04:45:40;;;;;;;;;;;18.70;70.00;;;;;;5110977;28;19923;-69
2023/06/28 04:48:06;;;;;;;;;;;18.80;70.00;;;;;;5111110;28;20002;-69
2023/06/28 04:50:32;;;;;;;;;;;18.70;69.90;;;;;;5110793;28;20375;-69
2023/06/28 04:52:57;;;;;;;;;;;18.80;70.00;;;;;;5111174;28;19907;-69
2023/06/28 04:55:23;;;;;;;;;;;18.80;70.00;;;;;;5110880;28;19918;-69
2023/06/28 04:57:48;;;;;;;;;;;18.80;70.10;;;;;;5111081;28;20130;-69
2023/06/28 05:00:14;;;;;;;;;;;18.80;70.10;;;;;;5111190;28;20376;-69
2023/06/28 05:02:40;;;;;;;;;;;18.80;70.00;;;;;;5109374;28;20027;-69
2023/06/28 05:05:05;;;;;;;;;;;18.80;70.00;;;;;;5109200;28;19911;-69
2023/06/28 05:07:31;;;;;;;;;;;18.80;70.00;;;;;;5110344;28;19911;-69
2023/06/28 05:09:56;;;;;;;;;;;18.80;70.70;;;;;;5109401;28;19916;-69
2023/06/28 05:12:22;;;;;;;;;;;18.90;70.10;;;;;;5108742;28;19907;-69
2023/06/28 05:14:47;;;;;;;;;;;18.90;70.10;;;;;;5110440;28;20466;-69
2023/06/28 05:17:13;;;;;;;;;;;18.90;70.10;;;;;;5109349;27;19916;-69
2023/06/28 05:19:38;;;;;;;;;;;18.90;70.00;;;;;;5110650;28;19915;-69
2023/06/28 05:22:04;;;;;;;;;;;18.90;70.10;;;;;;5110235;28;20548;-69
2023/06/28 05:24:29;;;;;;;;;;;18.90;70.00;;;;;;5110462;28;19947;-69
2023/06/28 05:26:54;;;;;;;;;;;19.00;70.00;;;;;;5109950;28;19912;-69
2023/06/28 05:29:20;;;;;;;;;;;19.00;70.00;;;;;;5109013;28;19911;-69
2023/06/28 05:31:45;;;;;;;;;;;19.00;69.90;;;;;;5110232;28;20488;-69
2023/06/28 05:34:11;;;;;;;;;;;19.10;70.00;;;;;;5118464;27;19919;-69
2023/06/28 05:36:37;;;;;;;;;;;19.10;69.80;;;;;;5125102;27;19911;-69
2023/06/28 05:39:02;;;;;;;;;;;19.10;69.80;;;;;;5130850;27;19912;-69
2023/06/28 05:41:28;;;;;;;;;;;19.10;69.80;;;;;;5127086;27;19969;-69
2023/06/28 05:43:54;;;;;;;;;;;19.10;69.70;;;;;;5108756;28;20261;-69
2023/06/28 05:46:19;;;;;;;;;;;19.10;69.60;;;;;;5108615;28;19912;-69
2023/06/28 05:48:46;;;;;;;;;;;19.10;69.60;;;;;;5109809;28;19919;-69
2023/06/28 05:51:13;;;;;;;;;;;19.20;69.60;;;;;;5110022;28;20356;-69
2023/06/28 05:53:39;;;;;;;;;;;19.20;69.60;;;;;;5110211;28;20424;-69
2023/06/28 05:56:05;;;;;;;;;;;19.20;69.60;;;;;;5108407;28;20097;-69
2023/06/28 05:58:30;;;;;;;;;;;19.20;69.60;;;;;;5110847;27;19972;-69
2023/06/28 06:00:56;;;;;;;;;;;19.20;69.40;;;;;;5128133;27;20264;-69
2023/06/28 06:03:23;;;;;;;;;;;19.20;69.50;;;;;;5116865;27;19911;-69
2023/06/28 06:05:48;;;;;;;;;;;19.20;69.50;;;;;;5109515;28;19919;-70
2023/06/28 06:08:14;;;;;;;;;;;19.30;69.50;;;;;;5109743;28;19912;-70
2023/06/28 06:10:39;;;;;;;;;;;19.20;69.40;;;;;;5109551;28;19976;-69
2023/06/28 06:13:05;;;;;;;;;;;19.30;69.50;;;;;;5108655;28;19947;-70
2023/06/28 06:15:30;;;;;;;;;;;19.20;69.40;;;;;;5109007;28;19912;-69
2023/06/28 06:17:56;;;;;;;;;;;19.30;69.40;;;;;;5108746;28;19911;-69
2023/06/28 06:20:22;;;;;;;;;;;19.30;69.40;;;;;;5109352;28;19912;-70
2023/06/28 06:22:48;;;;;;;;;;;19.30;69.30;;;;;;5109665;28;19912;-70
2023/06/28 06:25:14;;;;;;;;;;;19.30;69.30;;;;;;5109590;28;19951;-69
2023/06/28 06:27:39;;;;;;;;;;;19.30;69.30;;;;;;5109178;28;20008;-70
2023/06/28 06:30:05;;;;;;;;;;;19.30;69.30;;;;;;5109410;28;19919;-69
2023/06/28 06:32:30;;;;;;;;;;;19.30;69.30;;;;;;5109433;28;19916;-70
2023/06/28 06:34:57;;;;;;;;;;;19.30;69.00;;;;;;5109625;28;19915;-69
2023/06/28 06:37:23;;;;;;;;;;;19.30;69.20;;;;;;5108893;28;19911;-70
2023/06/28 06:39:50;;;;;;;;;;;19.40;69.20;;;;;;5108176;28;19946;-70
2023/06/28 06:42:15;;;;;;;;;;;19.30;69.10;;;;;;5109171;28;19915;-69
2023/06/28 06:44:41;;;;;;;;;;;19.40;69.20;;;;;;5109294;28;20325;-70
2023/06/28 06:47:06;;;;;;;;;;;19.30;69.10;;;;;;5108734;28;19918;-69
2023/06/28 06:49:32;;;;;;;;;;;19.30;69.00;;;;;;5109312;28;20340;-70
2023/06/28 06:51:58;;;;;;;;;;;19.40;69.00;;;;;;5107685;28;20372;-70
2023/06/28 06:54:24;;;;;;;;;;;19.40;69.00;;;;;;5109278;28;20293;-70
2023/06/28 06:56:50;;;;;;;;;;;19.40;69.00;;;;;;5108823;28;19912;-70
2023/06/28 06:59:19;;;;;;;;;;;19.40;68.90;;;;;;5107852;28;19908;-69
2023/06/28 07:01:45;;;;;;;;;;;19.40;68.80;;;;;;5107823;28;19915;-70
2023/06/28 07:04:11;;;;;;;;;;;19.40;68.80;;;;;;5109028;28;19911;-70
2023/06/28 07:06:36;;;;;;;;;;;19.50;68.80;;;;;;5108811;28;19912;-70
2023/06/28 07:09:02;;;;;;;;;;;19.50;68.70;;;;;;5109059;28;19918;-70
2023/06/28 07:11:28;;;;;;;;;;;19.50;68.60;;;;;;5108626;28;20035;-70
2023/06/28 07:13:53;;;;;;;;;;;19.60;68.70;;;;;;5108259;28;20352;-69
2023/06/28 07:16:19;;;;;;;;;;;19.60;69.30;;;;;;5108654;28;19961;-69
2023/06/28 07:18:44;;;;;;;;;;;19.60;68.50;;;;;;5108510;28;19912;-70
2023/06/28 07:21:14;;;;;;;;;;;19.70;68.40;;;;;;5108895;28;19919;-70
2023/06/28 07:23:39;;;;;;;;;;;19.70;68.40;;;;;;5107074;28;19927;-70
2023/06/28 07:26:05;;;;;;;;;;;19.70;68.30;;;;;;5108580;28;20560;-69
2023/06/28 07:28:30;;;;;;;;;;;19.80;68.30;;;;;;5108307;28;19912;-69
2023/06/28 07:30:58;;;;;;;;;;;19.80;68.30;;;;;;5111888;28;19923;-70
2023/06/28 07:33:24;;;;;;;;;;;19.80;68.20;;;;;;5111589;28;19931;-69
2023/06/28 07:35:50;;;;;;;;;;;19.80;68.20;;;;;;5111831;28;19958;-69
2023/06/28 07:38:20;;;;;;;;;;;19.90;68.20;;;;;;5112792;28;19980;-70
2023/06/28 07:40:46;;;;;;;;;;;19.90;68.10;;;;;;5112295;28;19912;-70
2023/06/28 07:43:12;;;;;;;;;;;19.90;68.20;;;;;;5112221;28;20500;-70
2023/06/28 07:45:37;;;;;;;;;;;19.90;68.10;;;;;;5112171;28;19907;-70
2023/06/28 07:48:03;;;;;;;;;;;19.90;68.20;;;;;;5112319;28;19916;-70
2023/06/28 07:50:28;;;;;;;;;;;19.90;68.10;;;;;;5112403;28;19912;-69
2023/06/28 07:52:54;;;;;;;;;;;19.90;68.50;;;;;;5112516;28;20364;-70
2023/06/28 07:55:20;;;;;;;;;;;19.90;68.20;;;;;;5112140;28;19923;-70
2023/06/28 07:57:45;;;;;;;;;;;20.00;68.20;;;;;;5111771;27;19972;-70
2023/06/28 08:00:11;;;;;;;;;;;20.00;68.10;;;;;;5130651;27;19979;-69
2023/06/28 08:02:36;;;;;;;;;;;20.00;68.20;;;;;;5121108;27;19935;-69
2023/06/28 08:05:02;;;;;;;;;;;20.00;68.10;;;;;;5097069;28;19911;-70
2023/06/28 08:07:28;;;;;;;;;;;20.10;68.10;;;;;;5112001;28;20269;-70
2023/06/28 08:09:53;;;;;;;;;;;20.10;68.10;;;;;;5110927;28;20008;-70
2023/06/28 08:12:19;;;;;;;;;;;20.10;68.00;;;;;;5105063;28;19915;-70
2023/06/28 08:14:45;;;;;;;;;;;20.20;68.00;;;;;;5108802;28;19915;-70
2023/06/28 08:17:10;;;;;;;;;;;20.20;67.90;;;;;;5113126;27;20044;-71
2023/06/28 08:19:36;;;;;;;;;;;20.20;67.80;;;;;;5106307;28;19990;-69
2023/06/28 08:22:03;;;;;;;;;;;20.30;67.70;;;;;;5111313;28;19912;-70
2023/06/28 08:24:31;;;;;;;;;;;20.30;67.70;;;;;;5111548;28;19951;-69
2023/06/28 08:26:57;;;;;;;;;;;20.30;67.60;;;;;;5111000;28;19919;-70
2023/06/28 08:29:22;;;;;;;;;;;20.40;67.60;;;;;;5111160;28;19912;-70
2023/06/28 08:31:48;;;;;;;;;;;20.40;67.50;;;;;;5109950;28;19923;-69
2023/06/28 08:34:15;;;;;;;;;;;20.50;67.50;;;;;;5111154;28;20049;-70
2023/06/28 08:36:41;;;;;;;;;;;20.50;67.40;;;;;;5098427;28;19912;-71
2023/06/28 08:39:06;;;;;;;;;;;20.50;67.30;;;;;;5089438;28;19919;-71
2023/06/28 08:41:33;;;;;;;;;;;20.60;67.20;;;;;;5094331;28;19912;-70
2023/06/28 08:44:00;;;;;;;;;;;20.60;67.20;;;;;;5110967;28;20045;-70
2023/06/28 08:46:26;;;;;;;;;;;20.70;67.20;;;;;;5110811;28;20290;-71
2023/06/28 08:48:52;;;;;;;;;;;20.70;67.20;;;;;;5110823;28;19915;-70
2023/06/28 08:51:18;;;;;;;;;;;20.70;67.10;;;;;;5110993;27;19916;-70
2023/06/28 08:53:47;;;;;;;;;;;20.70;67.00;;;;;;5110685;28;19924;-70
2023/06/28 08:56:13;;;;;;;;;;;20.70;66.80;;;;;;5110757;28;19908;-70
2023/06/28 08:58:38;;;;;;;;;;;20.70;67.10;;;;;;5109485;28;20007;-70
2023/06/28 09:01:04;;;;;;;;;;;20.70;67.10;;;;;;5110858;28;19916;-71
2023/06/28 09:03:30;;;;;;;;;;;20.70;67.00;;;;;;5110537;28;19916;-70
2023/06/28 09:05:56;;;;;;;;;;;20.80;67.10;;;;;;5110199;28;20378;-70
2023/06/28 09:08:22;;;;;;;;;;;20.80;67.10;;;;;;5110503;28;19996;-70
2023/06/28 09:10:48;;;;;;;;;;;20.80;67.00;;;;;;5110401;28;19916;-70
2023/06/28 09:13:19;;;;;;;;;;;20.80;67.00;;;;;;5103751;28;19912;-70
2023/06/28 09:15:45;;;;;;;;;;;20.90;67.00;;;;;;5110257;28;20241;-70
2023/06/28 09:18:10;;;;;;;;;;;20.90;67.00;;;;;;5110317;28;19912;-70
2023/06/28 09:20:36;;;;;;;;;;;21.00;67.00;;;;;;5110206;28;20373;-70
2023/06/28 09:23:02;;;;;;;;;;;21.00;67.00;;;;;;5104508;28;19930;-70
2023/06/28 09:25:29;;;;;;;;;;;21.10;66.90;;;;;;5109805;28;20034;-70
2023/06/28 09:27:55;;;;;;;;;;;21.20;66.90;;;;;;5110033;28;20299;-69
2023/06/28 09:30:21;;;;;;;;;;;21.30;66.80;;;;;;5109998;28;19912;-70
2023/06/28 09:32:50;;;;;;;;;;;21.30;66.80;;;;;;5109913;28;20318;-70
2023/06/28 09:35:16;;;;;;;;;;;21.40;66.60;;;;;;5108750;28;19998;-70
2023/06/28 09:37:42;;;;;;;;;;;21.40;66.60;;;;;;5109949;28;19916;-70
2023/06/28 09:40:07;;;;;;;;;;;21.40;66.60;;;;;;5109866;28;19957;-70
2023/06/28 09:42:42;;;;;;;;;;;21.40;66.90;;;;;;5109315;28;19970;-70
2023/06/28 09:45:08;;;;;;;;;;;21.40;66.70;;;;;;5109832;28;20068;-70
2023/06/28 09:47:33;;;;;;;;;;;21.40;66.90;;;;;;5109356;28;20465;-70
2023/06/28 09:50:02;;;;;;;;;;;21.40;67.00;;;;;;5109517;28;19923;-70
2023/06/28 09:52:34;;;;;;;;;;;21.40;67.00;;;;;;5109085;28;19915;-70
2023/06/28 09:55:00;;;;;;;;;;;21.30;67.00;;;;;;5109463;27;19920;-70
2023/06/28 09:57:27;;;;;;;;;;;21.40;67.00;;;;;;5126986;27;19916;-70
2023/06/28 09:59:53;;;;;;;;;;;21.40;67.10;;;;;;5130149;27;20007;-70
2023/06/28 10:02:20;;;;;;;;;;;21.40;67.00;;;;;;5123518;27;20066;-70
2023/06/28 10:04:46;;;;;;;;;;;21.50;67.20;;;;;;5091970;28;19916;-70
2023/06/28 10:07:12;;;;;;;;;;;21.50;66.80;;;;;;5109199;28;19918;-70
2023/06/28 10:09:38;;;;;;;;;;;21.60;66.90;;;;;;5109373;28;19907;-70
2023/06/28 10:12:10;;;;;;;;;;;21.60;66.70;;;;;;5102701;28;20594;-70
2023/06/28 10:14:38;;;;;;;;;;;21.70;66.70;;;;;;5108759;28;19942;-70
2023/06/28 10:17:04;;;;;;;;;;;21.80;66.60;;;;;;5106218;28;19912;-71
2023/06/28 10:19:30;;;;;;;;;;;21.80;66.50;;;;;;5109239;28;20048;-70
2023/06/28 10:21:56;;;;;;;;;;;21.80;66.50;;;;;;5109257;28;19911;-70
2023/06/28 10:24:22;;;;;;;;;;;21.90;66.40;;;;;;5107992;28;20305;-70
2023/06/28 10:26:48;;;;;;;;;;;21.90;66.50;;;;;;5109055;28;20314;-70
2023/06/28 10:29:14;;;;;;;;;;;21.90;66.50;;;;;;5109240;28;19919;-70
2023/06/28 10:31:39;;;;;;;;;;;21.90;66.60;;;;;;5108120;28;19915;-70
2023/06/28 10:34:05;;;;;;;;;;;21.90;66.60;;;;;;5107905;28;19920;-70
2023/06/28 10:36:31;;;;;;;;;;;21.90;66.50;;;;;;5107620;28;19919;-70
2023/06/28 10:38:56;;;;;;;;;;;22.00;66.50;;;;;;5109292;28;19912;-70
2023/06/28 10:41:24;;;;;;;;;;;22.00;66.30;;;;;;5109020;28;19954;-70
2023/06/28 10:44:01;;;;;;;;;;;22.10;66.20;;;;;;5108948;28;19916;-70
2023/06/28 10:46:27;;;;;;;;;;;22.10;66.20;;;;;;5108707;28;19947;-70
2023/06/28 10:48:53;;;;;;;;;;;22.20;66.20;;;;;;5108650;28;20008;-71
2023/06/28 10:51:20;;;;;;;;;;;22.20;66.20;;;;;;5108973;28;19916;-71
2023/06/28 10:53:53;;;;;;;;;;;22.20;66.20;;;;;;5109169;28;19908;-70
2023/06/28 10:56:19;;;;;;;;;;;22.20;66.20;;;;;;5108600;28;19918;-70
2023/06/28 10:58:45;;;;;;;;;;;22.20;66.20;;;;;;5108798;28;19911;-71
2023/06/28 11:01:11;;;;;;;;;;;22.20;66.30;;;;;;5108918;28;19912;-70
2023/06/28 11:03:38;;;;;;;;;;;22.20;66.40;;;;;;5108741;28;19911;-71
2023/06/28 11:06:04;;;;;;;;;;;22.20;66.40;;;;;;5112434;28;19939;-70
2023/06/28 11:08:37;;;;;;;;;;;22.20;66.40;;;;;;5113168;28;20032;-70
2023/06/28 11:11:02;;;;;;;;;;;22.20;66.50;;;;;;5111611;28;19961;-70
2023/06/28 11:13:32;;;;;;;;;;;22.20;66.50;;;;;;5112014;28;19959;-70
2023/06/28 11:16:05;;;;;;;;;;;22.20;66.60;;;;;;5112357;28;20014;-71
2023/06/28 11:18:30;;;;;;;;;;;22.20;66.60;;;;;;5112680;28;19916;-71
2023/06/28 11:20:57;;;;;;;;;;;22.20;66.70;;;;;;5112825;28;20326;-70
2023/06/28 11:23:23;;;;;;;;;;;22.10;66.70;;;;;;5112582;28;20440;-70
2023/06/28 11:25:53;;;;;;;;;;;22.10;66.70;;;;;;5112330;28;19912;-71
2023/06/28 11:28:22;;;;;;;;;;;22.10;66.80;;;;;;5112467;28;19912;-70
2023/06/28 11:30:50;;;;;;;;;;;22.10;66.90;;;;;;5112725;28;19916;-71
2023/06/28 11:33:16;;;;;;;;;;;22.10;66.90;;;;;;5112464;28;20257;-70
2023/06/28 11:35:42;;;;;;;;;;;22.10;66.90;;;;;;5112199;28;19912;-70
2023/06/28 11:38:08;;;;;;;;;;;22.10;66.90;;;;;;5112491;28;20014;-70
2023/06/28 11:40:35;;;;;;;;;;;22.10;66.90;;;;;;5112343;28;19930;-70
2023/06/28 11:43:00;;;;;;;;;;;22.10;66.90;;;;;;5110432;28;19920;-70
2023/06/28 11:45:27;;;;;;;;;;;22.10;66.90;;;;;;5111773;28;19990;-70
2023/06/28 11:47:53;;;;;;;;;;;22.20;66.90;;;;;;5110686;28;19951;-70
2023/06/28 11:50:19;;;;;;;;;;;22.20;66.90;;;;;;5112224;27;19973;-71
2023/06/28 11:52:47;;;;;;;;;;;22.20;66.80;;;;;;5112016;28;19912;-70
2023/06/28 11:55:14;;;;;;;;;;;22.20;66.90;;;;;;5112007;28;19912;-71
2023/06/28 11:57:43;;;;;;;;;;;22.30;66.80;;;;;;5117845;27;19915;-71
2023/06/28 12:00:09;;;;;;;;;;;22.40;66.70;;;;;;5122723;27;20724;-71
2023/06/28 12:02:45;;;;;;;;;;;22.50;66.60;;;;;;5111657;28;19912;-70
2023/06/28 12:05:10;;;;;;;;;;;22.50;66.60;;;;;;5111964;28;19912;-71
2023/06/28 12:07:36;;;;;;;;;;;22.60;66.30;;;;;;5111719;28;19907;-70
2023/06/28 12:10:02;;;;;;;;;;;22.70;66.40;;;;;;5110317;28;20276;-70
2023/06/28 12:12:34;;;;;;;;;;;22.70;66.20;;;;;;5109431;28;19908;-71
2023/06/28 12:14:59;;;;;;;;;;;22.70;66.10;;;;;;5111245;28;19978;-71
2023/06/28 12:17:25;;;;;;;;;;;22.80;66.20;;;;;;5109945;28;19919;-70
2023/06/28 12:19:52;;;;;;;;;;;22.80;66.00;;;;;;5111631;28;19998;-70
2023/06/28 12:22:18;;;;;;;;;;;22.80;65.90;;;;;;5111443;28;19919;-70
2023/06/28 12:24:43;;;;;;;;;;;22.90;65.80;;;;;;5111655;28;20364;-71
2023/06/28 12:27:09;;;;;;;;;;;23.00;65.70;;;;;;5110935;28;19947;-71
2023/06/28 12:29:35;;;;;;;;;;;23.00;65.60;;;;;;5111350;28;20403;-71
2023/06/28 12:32:05;;;;;;;;;;;23.10;65.50;;;;;;5111009;28;19916;-71
2023/06/28 12:34:34;;;;;;;;;;;23.20;65.40;;;;;;5111037;28;20330;-71
2023/06/28 12:37:01;;;;;;;;;;;23.30;65.20;;;;;;5110838;28;20650;-70
2023/06/28 12:39:27;;;;;;;;;;;23.30;65.10;;;;;;5110022;28;19907;-71
2023/06/28 12:41:59;;;;;;;;;;;23.30;65.10;;;;;;5111074;28;20006;-70
2023/06/28 12:44:25;;;;;;;;;;;23.40;65.00;;;;;;5110954;28;20022;-70
2023/06/28 12:46:50;;;;;;;;;;;23.40;65.10;;;;;;5110755;27;19998;-71
2023/06/28 12:49:16;;;;;;;;;;;23.40;65.00;;;;;;5110588;28;19915;-70
2023/06/28 12:51:41;;;;;;;;;;;23.40;65.10;;;;;;5110723;28;20435;-71
2023/06/28 12:54:07;;;;;;;;;;;23.50;65.00;;;;;;5110642;28;20327;-71
2023/06/28 12:56:34;;;;;;;;;;;23.50;64.90;;;;;;5110378;28;19919;-71
2023/06/28 12:58:59;;;;;;;;;;;23.50;65.50;;;;;;5110599;28;20416;-70
2023/06/28 13:01:25;;;;;;;;;;;23.60;65.00;;;;;;5108676;28;20010;-70
2023/06/28 13:03:54;;;;;;;;;;;23.60;64.90;;;;;;5104553;27;19968;-71
2023/06/28 13:06:23;;;;;;;;;;;23.60;65.00;;;;;;5115062;27;20435;-70
2023/06/28 13:08:48;;;;;;;;;;;23.60;65.00;;;;;;5112141;27;19941;-70
2023/06/28 13:11:14;;;;;;;;;;;23.60;65.00;;;;;;5106985;28;19916;-70
2023/06/28 13:13:39;;;;;;;;;;;23.60;65.10;;;;;;5108285;28;20262;-70
2023/06/28 13:16:06;;;;;;;;;;;23.60;64.90;;;;;;5109326;28;19919;-70
2023/06/28 13:18:31;;;;;;;;;;;23.70;64.90;;;;;;5109674;28;20556;-71
2023/06/28 13:20:57;;;;;;;;;;;23.70;64.90;;;;;;5108770;28;19912;-71
2023/06/28 13:23:22;;;;;;;;;;;23.70;64.80;;;;;;5110095;28;19975;-71
2023/06/28 13:25:48;;;;;;;;;;;23.70;65.30;;;;;;5109945;28;20010;-71
2023/06/28 13:28:13;;;;;;;;;;;23.70;64.60;;;;;;5109893;28;19998;-70
2023/06/28 13:30:41;;;;;;;;;;;23.80;64.70;;;;;;5109518;27;20093;-71
2023/06/28 13:33:06;;;;;;;;;;;23.80;65.40;;;;;;5110030;28;19947;-70
2023/06/28 13:35:32;;;;;;;;;;;23.80;64.70;;;;;;5110002;28;19912;-71
2023/06/28 13:37:57;;;;;;;;;;;23.80;64.60;;;;;;5109942;28;19973;-71
2023/06/28 13:40:24;;;;;;;;;;;23.90;64.70;;;;;;5109996;28;19999;-71
2023/06/28 13:42:49;;;;;;;;;;;23.90;64.70;;;;;;5109775;28;19922;-71
2023/06/28 13:45:15;;;;;;;;;;;23.90;64.60;;;;;;5110078;28;19994;-71
2023/06/28 13:47:40;;;;;;;;;;;23.90;64.70;;;;;;5109638;28;19911;-72
2023/06/28 13:50:06;;;;;;;;;;;23.90;64.80;;;;;;5109827;28;19915;-71
2023/06/28 13:52:31;;;;;;;;;;;23.90;64.80;;;;;;5109756;28;19978;-71
2023/06/28 13:54:57;;;;;;;;;;;23.90;64.80;;;;;;5109686;28;19911;-70
2023/06/28 13:57:23;;;;;;;;;;;23.90;64.70;;;;;;5109050;28;20015;-71
2023/06/28 13:59:48;;;;;;;;;;;23.90;64.70;;;;;;5114990;27;19970;-70
2023/06/28 14:02:16;;;;;;;;;;;24.00;64.60;;;;;;5124903;27;19912;-70
2023/06/28 14:04:42;;;;;;;;;;;24.00;64.60;;;;;;5091918;28;19919;-71
2023/06/28 14:07:07;;;;;;;;;;;24.10;64.50;;;;;;5109236;28;19912;-71
2023/06/28 14:09:33;;;;;;;;;;;24.10;64.40;;;;;;5109542;28;19930;-70